User Preferences

Timezone
Units
Lat/Lon format
Defaults

Geo and time bounds

256 - SOUTHWEST PASS ENTRANCE W, LA   Notice:06/03/2024 Recovered buoy
130 records
Date
(UTC)
Hs
(ft)
Tp
(s)
Dp
(deg)
Ta
(s)
SST
(F)
Air temp
(F)
Current sp
(kt)
Current dir
(deg)
2024-06-03 16:30 1.61 6.45 163 3.75 81.9 81.9
2024-06-03 16:00 1.64 6.25 166 3.84 81.3 81.7
2024-06-03 15:30 1.64 6.25 173 3.67 81.1 81.7
2024-06-03 15:00 1.67 5.13 197 3.58 80.4 81.5
2024-06-03 14:30 1.67 4.55 200 3.54 79.9 80.8
2024-06-03 14:00 1.57 3.64 217 3.42 80.1 81.0
2024-06-03 13:30 1.64 5.56 207 3.49 80.1 81.0
2024-06-03 13:00 1.61 4.88 211 3.69 80.1 80.6
2024-06-03 12:30 1.54 5.00 215 3.93 80.1 80.2
2024-06-03 12:00 1.51 5.41 246 3.95 80.1 80.1
2024-06-03 11:30 1.74 5.71 200 4.03 79.3 80.1
2024-06-03 11:00 1.64 6.45 178 3.85 79.9 79.9
2024-06-03 10:30 1.80 5.88 187 3.94 80.4 80.1
2024-06-03 10:00 1.80 6.90 157 3.87 80.4 80.4
2024-06-03 09:30 1.84 5.41 192 3.89 80.8 80.4
2024-06-03 09:00 1.90 5.71 194 3.65 81.9 80.6
2024-06-03 08:30 2.03 5.88 175 3.72 82.0 80.6
2024-06-03 08:00 2.03 5.41 187 3.72 82.4 80.6
2024-06-03 07:30 2.07 6.06 173 3.77 82.4 80.8
2024-06-03 07:00 1.97 5.56 189 3.81 82.2 81.0
2024-06-03 06:30 2.13 5.41 178 3.76 82.2 81.0
2024-06-03 06:00 2.03 5.71 180 3.42 82.2 81.1
2024-06-03 05:30 2.26 6.06 176 3.59 82.2 81.1 0.82 325.0
2024-06-03 05:00 2.30 6.45 172 3.54 82.2 81.1 0.68 316.0
2024-06-03 04:30 2.26 6.06 191 3.58 82.2 81.1 0.58 311.0
2024-06-03 04:00 2.36 5.71 166 3.69 82.2 81.3 0.56 307.0
2024-06-03 03:30 2.36 6.45 175 3.66 82.2 81.1 0.39 290.0
2024-06-03 03:00 2.36 5.56 179 3.71 82.2 81.1 0.41 293.0
2024-06-03 02:30 2.49 6.25 173 3.95 82.4 81.1 0.29 267.0
2024-06-03 02:00 2.49 6.45 175 4.12 82.4 81.1 0.33 279.0
2024-06-03 01:30 2.40 6.90 159 4.15 82.6 81.1 0.29 274.0
2024-06-03 01:00 2.46 7.14 146 4.19 82.6 81.1 0.27 269.0
2024-06-03 00:30 2.36 6.45 163 4.18 82.8 81.3 0.27 268.0
2024-06-03 00:00 2.62 5.88 173 4.53 82.9 81.7 0.27 270.0
2024-06-02 23:30 2.49 6.45 173 4.55 82.9 81.7 0.19 267.0
2024-06-02 23:00 2.53 6.45 163 4.54 83.1 81.9 0.21 259.0
2024-06-02 22:30 2.59 6.67 172 4.70 83.3 82.0 0.29 257.0
2024-06-02 22:00 2.69 7.69 152 4.93 83.1 82.2 0.31 257.0
2024-06-02 21:30 2.85 6.67 186 5.00 83.1 82.2 0.27 266.0
2024-06-02 21:00 2.85 6.90 172 4.98 82.9 82.0 0.33 250.0
2024-06-02 20:30 2.89 6.45 180 5.13 82.9 82.6 0.23 233.0
2024-06-02 20:00 3.02 6.90 195 5.31 82.8 82.0 0.19 243.0
2024-06-02 19:30 3.08 6.90 189 5.48 82.6 81.5 0.25 227.0
2024-06-02 19:00 3.05 6.67 188 5.81 82.6 81.1 0.33 206.0
2024-06-02 18:30 2.82 6.67 178 5.69 82.4 0.31 196.0
2024-06-02 18:00 2.89 6.67 169 5.79 82.6 79.5 0.27 204.0
2024-06-02 17:30 2.95 6.45 168 5.66 82.8 81.7
2024-06-02 17:00 2.66 6.45 178 5.37 83.1 82.0
2024-06-02 16:30 2.82 6.06 188 5.41 83.1 82.8
2024-06-02 16:00 2.69 6.45 191 5.22 82.8 82.4
2024-06-02 15:30 2.53 6.67 183 4.97 82.2 82.4
2024-06-02 15:00 2.62 6.90 177 4.94 81.5 82.4
2024-06-02 14:30 2.59 6.45 179 4.84 81.5 82.8
2024-06-02 14:00 2.53 7.14 171 4.72 81.3 82.6
2024-06-02 13:30 2.66 6.25 184 4.70 81.5 82.0
2024-06-02 13:00 2.76 6.45 178 4.62 81.1 81.7
2024-06-02 12:30 2.69 6.67 173 4.47 81.1 81.1
2024-06-02 12:00 2.82 6.25 182 4.58 81.1 80.6
2024-06-02 11:30 2.69 6.45 180 4.53 80.6 80.2
2024-06-02 11:00 2.79 6.67 174 4.56 80.6 80.2
2024-06-02 10:30 2.89 6.25 182 4.76 80.6 80.1
2024-06-02 10:00 2.72 6.67 179 4.32 81.5 80.2
2024-06-02 09:30 2.85 6.06 172 4.08 81.5 80.1
2024-06-02 09:00 3.18 6.06 171 4.26 81.9 79.9
2024-06-02 08:30 3.02 6.06 180 4.17 82.0 80.1
2024-06-02 08:00 3.08 5.88 181 4.18 82.4 80.2
2024-06-02 07:30 3.08 6.25 178 4.05 82.6 80.1
2024-06-02 07:00 3.31 6.45 169 4.17 82.9 80.4
2024-06-02 06:30 3.51 6.25 178 4.21 82.4 80.2
2024-06-02 06:00 3.64 6.06 179 4.26 82.4 80.2
2024-06-02 05:30 3.74 6.45 184 4.28 82.2 79.7
2024-06-02 05:00 3.58 6.25 181 4.13 82.4 0.82 331.0
2024-06-02 04:30 3.77 6.67 185 4.13 82.4 77.0
2024-06-02 04:00 3.87 6.67 186 4.31 82.6 80.1
2024-06-02 03:30 3.84 5.71 164 4.14 82.6 79.9
2024-06-02 03:00 3.77 6.25 181 4.03 82.8 79.5
2024-06-02 02:30 3.41 5.41 164 3.88 82.8 80.1
2024-06-02 02:00 3.41 6.25 186 3.83 83.1 78.3 0.99 290.0
2024-06-02 01:30 3.31 6.06 179 3.70 83.1 79.0 1.09 292.0
2024-06-02 01:00 2.89 5.88 180 3.60 83.1 78.3 0.97 280.0
2024-06-02 00:30 2.76 6.90 204 3.93 83.1 77.5
2024-06-02 00:00 2.59 5.88 185 3.90 83.1 77.2
2024-06-01 23:30 3.08 6.25 198 3.86 83.1 72.0 1.09 258.0
2024-06-01 23:00 3.81 6.25 197 3.81 83.1 73.0 0.99 260.0
2024-06-01 22:30 3.84 4.17 55 3.70 83.5 76.5 0.60 276.0
2024-06-01 22:00 2.82 6.25 202 4.19 84.6 83.7
2024-06-01 21:30 2.62 6.45 205 4.93 84.4 84.0
2024-06-01 21:00 2.72 5.88 192 4.91 84.4 84.4
2024-06-01 20:30 2.59 6.45 206 4.75 84.0 84.7
2024-06-01 20:00 2.76 6.25 204 4.81 83.7 84.4
2024-06-01 19:30 2.59 6.25 200 4.70 83.5 83.8
2024-06-01 19:00 2.79 6.06 195 4.81 83.7 83.5 0.45 340.0
2024-06-01 18:30 2.76 5.88 197 4.72 83.5 83.5
2024-06-01 18:00 2.49 6.67 209 4.68 83.5 83.3
2024-06-01 17:30 2.66 5.88 207 4.71 83.7 83.5
2024-06-01 17:00 2.72 5.88 200 4.63 82.9 83.3
2024-06-01 16:30 2.72 6.67 202 4.56 82.6 83.1
2024-06-01 16:00 2.79 5.41 197 4.40 82.2 83.1
2024-06-01 15:30 2.59 5.88 204 4.17 82.0 82.8
2024-06-01 15:00 2.69 6.06 209 4.19 81.9 82.8
2024-06-01 14:30 2.92 5.41 189 4.24 81.7 82.6
2024-06-01 14:00 2.66 5.56 198 3.95 81.5 82.6
2024-06-01 13:30 2.85 6.06 192 4.11 81.5 82.6
2024-06-01 13:00 2.89 6.06 197 4.02 81.3 82.2
2024-06-01 12:30 2.76 5.00 180 3.79 81.5 81.9 0.56 335.0
2024-06-01 12:00 2.89 5.56 188 3.76 81.3 81.5
2024-06-01 11:30 2.76 5.71 187 3.73 81.1 81.3
2024-06-01 11:00 2.72 5.88 192 3.61 81.3 81.3
2024-06-01 10:30 2.72 5.26 184 3.56 81.3 81.5
2024-06-01 10:00 2.76 4.76 173 3.65 81.1 81.5 0.80 338.0
2024-06-01 09:30 2.76 4.88 175 3.64 81.7 81.5 0.62 338.0
2024-06-01 09:00 2.69 5.71 184 3.64 81.7 81.5 0.66 337.0
2024-06-01 08:30 2.46 5.41 175 3.59 81.7 81.5
2024-06-01 08:00 2.33 5.56 185 3.79 81.7 81.5
2024-06-01 07:30 2.33 5.41 188 4.12 81.5 80.6
2024-06-01 07:00 2.53 5.71 183 4.22 81.3 80.2
2024-06-01 06:30 2.49 5.00 182 4.11 81.3 80.1
2024-06-01 06:00 2.72 5.26 180 4.12 82.0 80.2
2024-06-01 05:30 2.99 5.56 198 3.98 82.0 80.2 0.72 349.0
2024-06-01 05:00 3.35 5.26 181 3.93 82.8 80.1 0.54 345.0
2024-06-01 04:30 3.25 5.56 179 3.62 82.8 80.8 0.62 339.0
2024-06-01 04:00 2.95 5.00 167 3.29 82.9 82.0
2024-06-01 03:30 2.99 3.70 152 3.23 82.9 82.0
2024-06-01 03:00 2.95 5.26 183 3.30 83.1 81.9
2024-06-01 02:30 2.92 3.57 168 3.22 83.1 82.0 0.93 312.0
2024-06-01 02:00 2.79 5.41 188 3.21 83.1 82.2 0.97 315.0
2024-06-01 01:30 2.53 5.26 176 3.13 83.1 82.2 0.86 310.0
2024-06-01 01:00 2.40 5.13 186 3.20 83.5 82.2 0.64 314.0
2024-06-01 00:30 2.30 6.06 212 3.27 83.7 82.6 0.74 304.0
2024-06-01 00:00 2.33 5.13 180 3.26 83.7 82.6 0.68 307.0